Main page
METAR-TAF:

METAR-TAF

Airports :

Brussels, Zaventem,

Brussels Airport

latitude: Belgium, longitude: 50-54N, elevation: 004-32E m

Current weather observation

The report was made 20 minutes ago, at 21:20 UTC
Wind 4 kt from the South
Temperature -3°C
Humidity 86%
Pressure 1027 hPa
Visibility 10 km or more
no clouds below 1500 m and no cumulonimbus

METAR: EBBR 212120Z 18004KT CAVOK M03/M05 Q1027 NOSIG

Time: 21:40 (21:40 UTC)

Forecast

The report was made 4 hours and 37 minutes ago, at 17:03 UTC
Forecast valid from 21 at 18 UTC to 22 at 24 UTC
Wind 4 kt from the South
Visibility 10 km or more
no clouds below 1500 m and no cumulonimbus

TAF: EBBR 211703Z 2118/2224 18004KT CAVOK

Weather observations and forecasts of more than 4000 airports (METAR and TAF reports).

The available stations are represented by yellow and red dots on the map.

Hover mouse over dot to see the name of the station.

Then click to see weather observations and forecasts.

To change the map : click on the green buttons with a black cross to zoom in, on the green button with a dash to zoom out, or on the green arrows for adjacent maps.


METAR-TAF: